Station: Horsley Park  

  Atmospheric Gas Attenuation - ITU Rec 676-11   ----------------- dB/100km -----------------
Date Time Temp RH % AH g/m3 Dew Point Wind Direction Speed kph Gust kph Barometer mB Rainfall Since 9am 24GHz 47GHz 76GHz 122GHz 134GHz 241GHz
08/05 12:30 19 37 6.03 4 17 30 1013.1 0 13.9 20.7 28.1 73.4 61.9 211.2
08/05 12:20 19.1 39 6.39 4.8 9 15 1013.1 0 14.7 21.2 29.3 76.6 65.9 225.1
08/05 12:10 18.7 37 5.92 3.7 22 32 1013.1 0 13.7 20.6 27.9 72.6 60.9 207.6
08/05 12:00 18.6 37 5.89 3.6 17 30 1013.1 0 13.7 20.6 27.8 72.5 60.6 206.7
08/05 11:50 18.7 38 6.08 4.1 22 32 1013.1 0 14.0 20.9 28.4 74.1 62.7 213.9
08/05 11:40 18.5 38 6.01 3.9 19 24 1013.1 0 13.9 20.8 28.2 73.6 62.1 211.7
08/05 11:30 18.5 38 6.01 3.9 13 28 1013.1 0 13.9 20.8 28.2 73.6 62.1 211.7
08/05 11:20 18.3 39 6.1 4.4 9 15 1013.1 0 14.1 21.0 28.6 74.6 63.2 215.7
08/05 11:10 17.8 40 6.07 4 15 20 1013.1 0 14.1 21.1 28.7 74.8 63.3 215.9
08/05 11:00 17.7 39 5.88 3.6 15 33 1013.1 0 13.7 20.8 28.1 73.2 61.2 208.6
08/05 10:50 17.9 41 6.26 4.4 13 19 1013.1 0 14.5 21.3 29.3 76.5 65.4 223.2
08/05 10:40 17.3 41 6.04 4.2 13 15 1013.1 0 14.0 21.1 28.8 75.0 63.3 216.0
08/05 10:30 17.1 44 6.4 4.8 13 22 1013.1 0 14.8 21.7 30.1 78.6 67.6 231.1
08/05 10:20 16.9 43 6.18 4.5 11 15 1013.1 0 14.3 21.4 29.4 76.7 65.3 222.7
08/05 10:10 16.7 44 6.25 4.4 19 24 1013.1 0 14.5 21.6 29.7 77.5 66.2 226.1
08/05 10:00 16.3 46 6.38 4.7 11 26 1013.1 0 14.8 21.8 30.3 79.1 68.1 232.6
08/05 09:50 15.7 47 6.29 4.4 7 13 1013.1 0 14.6 21.9 30.2 78.9 67.5 230.6
08/05 09:40 15.4 48 6.31 4.4 6 9 1013.1 0 14.7 22.0 30.4 79.4 68.0 232.3
08/05 09:30 14.9 49 6.24 4.3 4 11 1013.1 0 14.5 22.0 30.3 79.2 67.6 230.8
08/05 09:20 14.3 50 6.14 4 4 6 1013.1 0 14.3 22.0 30.2 78.8 66.9 228.3
08/05 09:10 13.7 52 6.16 4 4 6 1013.1 0 14.4 22.1 30.5 79.6 67.7 230.8
08/05 09:00 12.9 56 6.31 4.3 6 9 1013.1 0 14.7 22.6 31.3 81.9 70.2 239.6
08/05 08:50 13.3 56 6.47 4.9 4 4 1013.1 0 15.1 22.7 31.8 83.0 71.8 245.2
08/05 08:40 12.7 59 6.57 4.9 0 0 1013.1 0 15.3 23.0 32.4 84.7 73.6 251.4
08/05 08:30 11.4 62 6.36 4.4 0 4 1013.1 0 14.9 23.0 32.1 83.9 72.2 246.3
08/05 08:20 10.5 63 6.11 3.7 2 2 1013.1 0 14.4 22.9 31.5 82.3 69.9 238.0
08/05 08:10 10.2 65 6.19 3.9 0 0 1013.1 0 14.6 23.1 31.9 83.4 71.1 242.5
08/05 08:00 9.5 68 6.19 3.9 0 2 1013.1 0 14.6 23.2 32.2 84.2 71.8 244.6
08/05 07:50 8.6 73 6.28 4 0 0 1013.1 0 14.8 23.6 32.9 86.1 73.8 251.5
08/05 07:40 8.2 77 6.45 4.4 0 0 1013.1 0 15.2 24.0 33.8 88.3 76.4 260.6
08/05 07:30 6.9 79 6.08 3.5 0 2 1013.1 0 14.5 23.7 32.9 85.8 72.8 247.7
08/05 07:20 6 82 5.96 3.1 0 0 1013.1 0 14.3 23.8 32.7 85.5 72.0 245.0
08/05 07:10 5.2 86 5.93 3 6 7 1013.1 0 14.2 23.9 32.9 86.1 72.4 246.1
08/05 07:00 4.5 85 5.59 2.2 0 4 1013.1 0 13.5 23.6 31.9 83.2 68.5 232.3
08/05 06:50 4.4 84 5.49 1.9 0 4 1013.1 0 13.3 23.4 31.5 82.2 67.2 227.9
08/05 06:40 4.4 82 5.36 1.7 0 0 1013.1 0 13.0 23.2 31.0 80.8 65.5 221.9
08/05 06:30 4.6 82 5.43 1.8 0 4 1013.1 0 13.2 23.3 31.2 81.3 66.2 224.5
08/05 06:20 4.7 82 5.47 1.9 0 0 1013.1 0 13.3 23.3 31.3 81.7 66.7 226.1
08/05 06:10 4.8 81 5.44 1.8 0 0 1013.1 0 13.2 23.3 31.1 81.2 66.2 224.4
08/05 06:00 5.1 79 5.41 1.8 2 4 1013.1 0 13.1 23.1 30.9 80.6 65.6 222.2
08/05 05:50 5.7 76 5.41 1.8 2 4 1013.1 0 13.1 23.0 30.7 80.0 65.1 220.5
08/05 05:40 4.9 86 5.81 2.7 6 7 1013.1 0 14.0 23.8 32.6 85.1 71.0 241.4
08/05 05:30 4.5 84 5.53 2 2 6 1013.1 0 13.4 23.5 31.6 82.5 67.7 229.5
08/05 05:20 4.2 84 5.42 1.7 0 0 1013.1 0 13.2 23.4 31.3 81.7 66.5 225.2
08/05 05:10 4.2 82 5.29 1.5 0 0 1013.1 0 12.9 23.2 30.8 80.3 64.7 219.2
08/05 05:00 4.6 82 5.43 1.8 0 4 1013.1 0 13.2 23.3 31.2 81.3 66.2 224.5
08/05 04:50 4.6 82 5.43 1.8 4 4 1013.1 0 13.2 23.3 31.2 81.3 66.2 224.5
08/05 04:40 4.8 82 5.5 2 0 0 1013.1 0 13.3 23.4 31.4 81.9 67.0 227.2
08/05 04:30 4.9 81 5.47 1.9 0 0 1013.1 0 13.2 23.3 31.2 81.5 66.5 225.5
08/05 04:20 5.2 76 5.24 1.3 0 0 1013.1 0 12.7 22.8 30.2 78.7 63.3 214.2
08/05 04:10 5.7 74 5.27 1.4 0 0 1013.1 0 12.8 22.8 30.1 78.5 63.2 214.2
08/05 04:00 6 75 5.45 1.9 2 4 1013.1 0 13.2 23.0 30.7 80.1 65.3 221.5
08/05 03:50 6.4 73 5.44 1.9 2 4 1013.1 0 13.1 22.8 30.5 79.6 64.9 219.9
08/05 03:40 6.3 70 5.18 1.2 4 6 1013.1 0 12.6 22.5 29.6 77.0 61.6 208.5
08/05 03:30 7.3 65 5.14 1.2 4 7 1013.1 0 12.5 22.2 29.0 75.6 60.3 204.1
08/05 03:20 7.5 65 5.21 1.3 4 4 1013.1 0 12.6 22.2 29.2 76.2 61.1 206.7
08/05 03:10 7 67 5.19 1.3 4 4 1013.1 0 12.6 22.3 29.3 76.4 61.2 207.1
08/05 03:00 7.2 64 5.03 0.9 4 4 1013.1 0 12.2 22.0 28.7 74.6 59.0 199.6
08/05 02:50 7.5 61 4.88 0.4 2 4 1013.1 0 11.9 21.7 28.0 72.8 56.9 192.3
08/05 02:40 8 60 4.96 0.7 0 0 1013.1 0 12.0 21.7 28.1 73.2 57.6 194.5
08/05 02:30 8.5 58 4.95 0.7 4 7 1013.1 0 12.0 21.6 27.9 72.6 57.1 192.9
08/05 02:20 9 57 5.03 0.9 6 9 1013.1 0 12.2 21.6 28.0 72.9 57.7 195.1
08/05 02:10 9.1 56 4.97 0.8 6 7 1013.1 0 12.0 21.5 27.8 72.3 56.9 192.3
08/05 02:00 9.3 55 4.94 0.7 7 15 1013.1 0 12.0 21.4 27.6 71.8 56.4 190.6
08/05 01:50 9.5 54 4.92 0.6 11 13 1013.1 0 11.9 21.3 27.5 71.4 56.0 189.2
08/05 01:40 9.7 53 4.89 0.6 9 13 1013.1 0 11.8 21.2 27.3 70.9 55.5 187.5
08/05 01:30 9.5 53 4.83 0.4 9 19 1013.1 0 11.7 21.2 27.1 70.5 54.9 185.4
08/05 01:20 9.6 52 4.76 0.2 9 11 1013.1 0 11.6 21.0 26.8 69.8 54.0 182.2
08/05 01:10 9.7 52 4.8 0.3 9 15 1013.1 0 11.6 21.1 27.0 70.1 54.4 183.7
08/05 01:00 9.5 52 4.73 0.1 9 17 1013.1 0 11.5 21.0 26.8 69.6 53.7 181.2
08/05 00:50 9.7 51 4.7 0 7 11 1013.1 0 11.4 20.9 26.6 69.1 53.2 179.5
08/05 00:40 9.8 50 4.64 -0.2 13 17 1013.1 0 11.3 20.8 26.3 68.4 52.4 176.8
08/05 00:20 9.1 51 4.53 -0.5 7 13 1013.1 0 11.1 20.8 26.2 68.0 51.6 173.7
08/05 00:10 9.3 51 4.58 -0.3 6 9 1013.1 0 11.2 20.9 26.3 68.3 52.1 175.3
08/05 00:00 9.3 50 4.49 -0.6 7 13 1013.1 0 11.0 20.7 26.0 67.4 51.0 171.6
07/05 23:50 9.6 49 4.49 -0.6 9 11 1013.1 0 11.0 20.7 25.9 67.2 50.8 170.9
07/05 23:40 9.8 48 4.45 -0.7 9 11 1013.1 0 10.9 20.6 25.7 66.6 50.2 168.8
07/05 23:30 9.9 48 4.48 -0.6 11 22 1013.1 0 11.0 20.6 25.7 66.8 50.5 169.9
07/05 23:20 9.9 48 4.48 -0.6 7 11 1013.1 0 11.0 20.6 25.7 66.8 50.5 169.9
07/05 23:10 9.9 48 4.48 -0.6 7 11 1013.1 0 11.0 20.6 25.7 66.8 50.5 169.9
07/05 23:00 9.8 48 4.45 -0.7 11 20 1013.1 0 10.9 20.6 25.7 66.6 50.2 168.8
07/05 22:50 9.6 49 4.49 -0.6 11 15 1013.1 0 11.0 20.7 25.9 67.2 50.8 170.9
07/05 22:40 9.3 50 4.49 -0.6 7 7 1013.1 0 11.0 20.7 26.0 67.4 51.0 171.6
07/05 22:30 9.4 50 4.52 -0.5 9 13 1013.1 0 11.1 20.7 26.0 67.6 51.3 172.6
07/05 22:20 9.3 50 4.49 -0.6 7 13 1013.1 0 11.0 20.7 26.0 67.4 51.0 171.6
07/05 22:10 9.4 49 4.43 -0.8 7 9 1013.1 0 10.9 20.6 25.7 66.8 50.2 168.8
07/05 22:00 9.7 48 4.43 -0.8 9 15 1013.1 0 10.9 20.5 25.6 66.5 50.0 168.2
07/05 21:50 9.8 48 4.45 -0.7 13 19 1013.1 0 10.9 20.6 25.7 66.6 50.2 168.8
07/05 21:40 9.3 49 4.4 -0.9 9 11 1013.1 0 10.8 20.6 25.6 66.6 49.9 167.8
07/05 21:30 9.5 48 4.37 -0.9 6 13 1013.1 0 10.7 20.5 25.5 66.1 49.4 166.1
07/05 21:20 9.6 48 4.4 -0.9 7 9 1013.1 0 10.8 20.5 25.5 66.3 49.7 167.2
07/05 21:10 9.6 47 4.31 -1.2 6 6 1013.1 0 10.6 20.4 25.2 65.5 48.7 163.5
07/05 21:00 10.3 45 4.31 -1.1 9 17 1013.1 0 10.6 20.2 25.0 64.9 48.2 162.1
07/05 20:50 10.4 44 4.24 -1.4 7 9 1013.1 0 10.4 20.1 24.7 64.2 47.4 159.0
07/05 20:40 10.6 43 4.2 -1.5 11 15 1013.1 0 10.3 20.0 24.5 63.6 46.8 157.0
07/05 20:30 10.7 43 4.22 -1.4 9 19 1013.1 0 10.4 20.0 24.6 63.7 47.0 157.6
07/05 20:20 10.8 42 4.15 -1.6 11 15 1013.1 0 10.2 19.9 24.3 63.0 46.1 154.6
07/05 20:10 10.8 42 4.15 -1.6 11 19 1013.1 0 10.2 19.9 24.3 63.0 46.1 154.6
07/05 20:00 10.9 41 4.08 -1.8 11 28 1013.1 0 10.1 19.8 24.0 62.3 45.2 151.6
07/05 19:50 11 41 4.1 -1.8 9 11 1013.1 0 10.1 19.8 24.1 62.4 45.4 152.2

Last Refresh: 08-May-2026 12:09:25

Bureau of Meteorology